Naples, FL

5:20 PM EDT on April 27, 2015 (GMT -0400)
Naples Municipal | | Change Station
CLOSE
Current Station
Airport
Location: Naples,
Elevation: 10 ft
Nearby Weather Stations

Elev 10 ft 26.16 °N, 81.77 °W | Updated 27 minutes ago

Clear
Clear
89 °F
Feels Like 95 °F
N
12
Wind Variable Wind from SW

Today
High -- | Low -- °F
--% Chance of Precip.
Yesterday
High -- | Low -- °F
Precip. -- in
6:53 AM 7:56 PM
Waxing Gibbous, 68% visible
Pressure 29.78 in
Visibility 9.0 miles
Clouds Clear
Heat Index 95 °F
Dew Point 71 °F
Humidity 55%
Rainfall 0.00 in
Snow Depth Not available.
UV 6 out of 12
Pollen 3.60 out of 12
Air Quality Not available.
Flu Activity Local Activity
METAR KAPF 272053Z 22010KT 9SM CLR 32/22 A2978 RMK AO2 SLP082 T03170217 56008

More Conditions Fewer Conditions

Pressure 29.78 in
Visibility 9.0 miles
Clouds Clear
Heat Index 95 °F
Dew Point 71 °F
Humidity 55%
Rainfall 0.00 in
Snow Depth Not available.
UV 6 out of 12
Pollen 3.60 out of 12
Air Quality Not available.
Flu Activity Local Activity
METAR KAPF 272053Z 22010KT 9SM CLR 32/22 A2978 RMK AO2 SLP082 T03170217 56008

More Conditions Fewer Conditions

10-Day Weather Forecast

Almanac

Astronomy

Apr. 27, 2015 Rise Set
Actual Time
Civil Twilight
Nautical Twilight
Astronomical Twilight
Moon
Length of Visible Light
Length of Day
Tomorrow will be .
, % of the Moon is Illuminated

Today's Extremes

State Highs State Lows

Community

WunderPhotos

Upload Photos

1,817,429 photos uploaded!

WunderBlogs® & News

Nearby

Air Quality

  Air Quality AQ Index Pollutant
Not available.

Snow Depth

Station Depth Elevation

Earthquake Activity

City Distance Mag. Time & Date
Minimum magnitude displayed is 2.5.

Coastal Water Temperatures

Place Temperature

Stations

Nearby Weather Stations

Station Location Temp. Windchill Dew Point Humidity Wind Precip. Elev Updated Type